Aviation Digital Data Service (ADDS)

Output produced by METARs form (2143 UTC 01 December 2021)
found at http://aviationweather.gov/metar/data/
 
KMLU 012053Z AUTO 24013G19KT 10SM CLR 24/10 A3005 RMK AO2 SLP176 T02390100 56024
KMLU 011720Z 0118/0218 22010KT P6SM SKC 
     FM020000 21004KT P6SM FEW250 
     FM020900 25004KT 4SM BR SKC 
     FM021200 VRB03KT P6SM SKC